sensor_id;sensor_type;location;lat;lon;timestamp;temperature;humidity
22442;DHT22;11388;54.456;9.752;2023-02-27T00:01:27;1.60;99.90
22442;DHT22;11388;54.456;9.752;2023-02-27T00:03:55;1.60;99.90
22442;DHT22;11388;54.456;9.752;2023-02-27T00:06:21;1.50;99.90
22442;DHT22;11388;54.456;9.752;2023-02-27T00:08:47;1.50;99.90
22442;DHT22;11388;54.456;9.752;2023-02-27T00:11:13;1.60;99.90
22442;DHT22;11388;54.456;9.752;2023-02-27T00:13:38;1.50;99.90
22442;DHT22;11388;54.456;9.752;2023-02-27T00:16:05;1.50;99.90
22442;DHT22;11388;54.456;9.752;2023-02-27T00:18:30;1.50;99.90
22442;DHT22;11388;54.456;9.752;2023-02-27T00:20:56;1.50;99.90
22442;DHT22;11388;54.456;9.752;2023-02-27T00:23:22;1.40;99.90
22442;DHT22;11388;54.456;9.752;2023-02-27T00:25:47;1.40;99.90
22442;DHT22;11388;54.456;9.752;2023-02-27T00:28:14;1.30;99.90
22442;DHT22;11388;54.456;9.752;2023-02-27T00:30:40;1.30;99.90
22442;DHT22;11388;54.456;9.752;2023-02-27T00:33:06;1.30;99.90
22442;DHT22;11388;54.456;9.752;2023-02-27T00:35:31;1.40;99.90
22442;DHT22;11388;54.456;9.752;2023-02-27T00:37:57;1.30;99.90
22442;DHT22;11388;54.456;9.752;2023-02-27T00:40:23;1.20;99.90
22442;DHT22;11388;54.456;9.752;2023-02-27T00:42:51;1.20;99.90
22442;DHT22;11388;54.456;9.752;2023-02-27T00:45:17;1.20;99.90
22442;DHT22;11388;54.456;9.752;2023-02-27T00:47:44;1.10;99.90
22442;DHT22;11388;54.456;9.752;2023-02-27T00:50:11;1.10;99.90
22442;DHT22;11388;54.456;9.752;2023-02-27T00:52:37;1.10;99.90
22442;DHT22;11388;54.456;9.752;2023-02-27T00:55:04;1.10;99.90
22442;DHT22;11388;54.456;9.752;2023-02-27T00:57:29;1.10;99.90
22442;DHT22;11388;54.456;9.752;2023-02-27T00:59:55;1.20;99.90
22442;DHT22;11388;54.456;9.752;2023-02-27T01:02:21;1.30;99.90
22442;DHT22;11388;54.456;9.752;2023-02-27T01:04:47;1.30;99.90
22442;DHT22;11388;54.456;9.752;2023-02-27T01:07:12;1.30;99.90
22442;DHT22;11388;54.456;9.752;2023-02-27T01:09:38;1.20;99.90
22442;DHT22;11388;54.456;9.752;2023-02-27T01:12:04;1.20;99.90
22442;DHT22;11388;54.456;9.752;2023-02-27T01:14:33;1.10;99.90
22442;DHT22;11388;54.456;9.752;2023-02-27T01:16:58;1.00;99.90
22442;DHT22;11388;54.456;9.752;2023-02-27T01:19:24;1.10;99.90
22442;DHT22;11388;54.456;9.752;2023-02-27T01:21:50;1.10;99.90
22442;DHT22;11388;54.456;9.752;2023-02-27T01:24:15;1.10;99.90
22442;DHT22;11388;54.456;9.752;2023-02-27T01:26:44;1.10;99.90
22442;DHT22;11388;54.456;9.752;2023-02-27T01:29:12;1.10;99.90
22442;DHT22;11388;54.456;9.752;2023-02-27T01:31:37;1.20;99.90
22442;DHT22;11388;54.456;9.752;2023-02-27T01:34:03;1.30;99.90
22442;DHT22;11388;54.456;9.752;2023-02-27T01:36:29;1.40;99.90
22442;DHT22;11388;54.456;9.752;2023-02-27T01:38:55;1.40;99.90
22442;DHT22;11388;54.456;9.752;2023-02-27T01:41:20;1.50;99.90
22442;DHT22;11388;54.456;9.752;2023-02-27T01:46:25;1.60;99.90
22442;DHT22;11388;54.456;9.752;2023-02-27T01:48:53;1.70;99.90
22442;DHT22;11388;54.456;9.752;2023-02-27T01:51:25;1.90;99.90
22442;DHT22;11388;54.456;9.752;2023-02-27T01:53:52;1.90;99.90
22442;DHT22;11388;54.456;9.752;2023-02-27T01:56:24;1.90;99.90
22442;DHT22;11388;54.456;9.752;2023-02-27T01:58:52;1.90;99.90
22442;DHT22;11388;54.456;9.752;2023-02-27T02:01:21;2.00;99.90
22442;DHT22;11388;54.456;9.752;2023-02-27T02:03:59;2.00;99.90
22442;DHT22;11388;54.456;9.752;2023-02-27T02:06:28;2.00;99.90
22442;DHT22;11388;54.456;9.752;2023-02-27T02:08:55;2.10;99.90
22442;DHT22;11388;54.456;9.752;2023-02-27T02:11:23;2.10;99.90
22442;DHT22;11388;54.456;9.752;2023-02-27T02:13:54;2.20;99.90
22442;DHT22;11388;54.456;9.752;2023-02-27T02:16:33;2.20;99.90
22442;DHT22;11388;54.456;9.752;2023-02-27T02:22:24;2.30;99.90
22442;DHT22;11388;54.456;9.752;2023-02-27T02:36:50;2.50;99.90
22442;DHT22;11388;54.456;9.752;2023-02-27T02:47:26;2.50;99.90
22442;DHT22;11388;54.456;9.752;2023-02-27T02:49:55;2.40;99.90
22442;DHT22;11388;54.456;9.752;2023-02-27T02:55:31;2.20;99.90
22442;DHT22;11388;54.456;9.752;2023-02-27T02:58:01;2.20;99.90
22442;DHT22;11388;54.456;9.752;2023-02-27T03:00:34;2.20;99.90
22442;DHT22;11388;54.456;9.752;2023-02-27T03:03:14;2.10;99.90
22442;DHT22;11388;54.456;9.752;2023-02-27T03:05:50;2.00;99.90
22442;DHT22;11388;54.456;9.752;2023-02-27T03:08:27;2.00;99.90
22442;DHT22;11388;54.456;9.752;2023-02-27T03:10:57;1.90;99.90
22442;DHT22;11388;54.456;9.752;2023-02-27T03:13:28;1.70;99.90
22442;DHT22;11388;54.456;9.752;2023-02-27T03:16:06;1.70;99.90
22442;DHT22;11388;54.456;9.752;2023-02-27T03:18:44;1.70;99.90
22442;DHT22;11388;54.456;9.752;2023-02-27T03:21:15;1.70;99.90
22442;DHT22;11388;54.456;9.752;2023-02-27T03:23:45;1.60;99.90
22442;DHT22;11388;54.456;9.752;2023-02-27T03:26:19;1.50;99.90
22442;DHT22;11388;54.456;9.752;2023-02-27T03:29:01;1.50;99.90
22442;DHT22;11388;54.456;9.752;2023-02-27T03:31:44;1.50;99.90
22442;DHT22;11388;54.456;9.752;2023-02-27T03:34:33;1.50;99.90
22442;DHT22;11388;54.456;9.752;2023-02-27T03:37:08;1.40;99.90
22442;DHT22;11388;54.456;9.752;2023-02-27T03:42:40;1.40;99.90
22442;DHT22;11388;54.456;9.752;2023-02-27T03:45:36;1.30;99.90
22442;DHT22;11388;54.456;9.752;2023-02-27T03:48:04;1.20;99.90
22442;DHT22;11388;54.456;9.752;2023-02-27T03:50:32;1.20;99.90
22442;DHT22;11388;54.456;9.752;2023-02-27T03:52:58;1.20;99.90
22442;DHT22;11388;54.456;9.752;2023-02-27T03:55:29;1.20;99.90
22442;DHT22;11388;54.456;9.752;2023-02-27T03:57:57;1.20;99.90
22442;DHT22;11388;54.456;9.752;2023-02-27T04:00:24;1.20;99.90
22442;DHT22;11388;54.456;9.752;2023-02-27T04:02:51;1.20;99.90
22442;DHT22;11388;54.456;9.752;2023-02-27T04:05:19;1.20;99.90
22442;DHT22;11388;54.456;9.752;2023-02-27T04:16:52;1.10;99.90
22442;DHT22;11388;54.456;9.752;2023-02-27T04:22:34;1.10;99.90
22442;DHT22;11388;54.456;9.752;2023-02-27T04:25:05;1.10;99.90
22442;DHT22;11388;54.456;9.752;2023-02-27T04:33:48;1.00;99.90
22442;DHT22;11388;54.456;9.752;2023-02-27T04:36:33;1.10;99.90
22442;DHT22;11388;54.456;9.752;2023-02-27T04:39:07;1.10;99.90
22442;DHT22;11388;54.456;9.752;2023-02-27T04:41:42;1.00;99.90
22442;DHT22;11388;54.456;9.752;2023-02-27T04:44:10;1.00;99.90
22442;DHT22;11388;54.456;9.752;2023-02-27T04:46:39;1.10;99.90
22442;DHT22;11388;54.456;9.752;2023-02-27T04:49:43;0.90;99.90
22442;DHT22;11388;54.456;9.752;2023-02-27T04:57:56;1.00;99.90
22442;DHT22;11388;54.456;9.752;2023-02-27T05:00:25;1.00;99.90
22442;DHT22;11388;54.456;9.752;2023-02-27T05:02:59;1.10;99.90
22442;DHT22;11388;54.456;9.752;2023-02-27T05:05:29;1.10;99.90
22442;DHT22;11388;54.456;9.752;2023-02-27T05:10:50;0.90;99.90
22442;DHT22;11388;54.456;9.752;2023-02-27T05:13:37;0.90;99.90
22442;DHT22;11388;54.456;9.752;2023-02-27T05:16:09;0.70;99.90
22442;DHT22;11388;54.456;9.752;2023-02-27T05:18:37;0.70;99.90
22442;DHT22;11388;54.456;9.752;2023-02-27T05:21:26;0.70;99.90
22442;DHT22;11388;54.456;9.752;2023-02-27T05:26:57;0.70;99.90
22442;DHT22;11388;54.456;9.752;2023-02-27T05:29:46;0.70;99.90
22442;DHT22;11388;54.456;9.752;2023-02-27T05:32:36;0.70;99.90
22442;DHT22;11388;54.456;9.752;2023-02-27T05:37:45;0.60;99.90
22442;DHT22;11388;54.456;9.752;2023-02-27T05:40:18;0.60;99.90
22442;DHT22;11388;54.456;9.752;2023-02-27T05:42:59;0.60;99.90
22442;DHT22;11388;54.456;9.752;2023-02-27T05:45:29;0.70;99.90
22442;DHT22;11388;54.456;9.752;2023-02-27T05:48:04;0.60;99.90
22442;DHT22;11388;54.456;9.752;2023-02-27T05:50:34;0.70;99.90
22442;DHT22;11388;54.456;9.752;2023-02-27T05:53:05;0.80;99.90
22442;DHT22;11388;54.456;9.752;2023-02-27T05:55:38;0.70;99.90
22442;DHT22;11388;54.456;9.752;2023-02-27T05:58:13;0.70;99.90
22442;DHT22;11388;54.456;9.752;2023-02-27T06:01:01;0.80;99.90
22442;DHT22;11388;54.456;9.752;2023-02-27T06:03:30;0.80;99.90
22442;DHT22;11388;54.456;9.752;2023-02-27T06:05:58;0.80;99.90
22442;DHT22;11388;54.456;9.752;2023-02-27T06:08:24;0.80;99.90
22442;DHT22;11388;54.456;9.752;2023-02-27T06:10:52;0.80;99.90
22442;DHT22;11388;54.456;9.752;2023-02-27T06:13:20;0.80;99.90
22442;DHT22;11388;54.456;9.752;2023-02-27T06:15:47;0.80;99.90
22442;DHT22;11388;54.456;9.752;2023-02-27T06:18:14;0.80;99.90
22442;DHT22;11388;54.456;9.752;2023-02-27T06:20:41;0.70;99.90
22442;DHT22;11388;54.456;9.752;2023-02-27T06:23:07;0.70;99.90
22442;DHT22;11388;54.456;9.752;2023-02-27T06:25:33;0.80;99.90
22442;DHT22;11388;54.456;9.752;2023-02-27T06:27:59;0.80;99.90
22442;DHT22;11388;54.456;9.752;2023-02-27T06:30:25;1.00;99.90
22442;DHT22;11388;54.456;9.752;2023-02-27T06:32:51;0.80;99.90
22442;DHT22;11388;54.456;9.752;2023-02-27T06:35:19;0.70;99.90
22442;DHT22;11388;54.456;9.752;2023-02-27T06:37:45;0.80;99.90
22442;DHT22;11388;54.456;9.752;2023-02-27T06:40:11;0.80;99.90
22442;DHT22;11388;54.456;9.752;2023-02-27T06:42:38;0.80;99.90
22442;DHT22;11388;54.456;9.752;2023-02-27T06:45:05;1.00;99.90
22442;DHT22;11388;54.456;9.752;2023-02-27T06:47:31;1.10;99.90
22442;DHT22;11388;54.456;9.752;2023-02-27T06:49:56;1.20;99.90
22442;DHT22;11388;54.456;9.752;2023-02-27T06:52:22;1.30;99.90
22442;DHT22;11388;54.456;9.752;2023-02-27T06:54:48;1.40;99.90
22442;DHT22;11388;54.456;9.752;2023-02-27T06:57:14;1.40;99.90
22442;DHT22;11388;54.456;9.752;2023-02-27T06:59:39;1.50;99.90
22442;DHT22;11388;54.456;9.752;2023-02-27T07:02:06;1.50;99.90
22442;DHT22;11388;54.456;9.752;2023-02-27T07:04:32;1.60;99.90
22442;DHT22;11388;54.456;9.752;2023-02-27T07:06:57;1.60;99.90
22442;DHT22;11388;54.456;9.752;2023-02-27T07:09:24;1.60;99.90
22442;DHT22;11388;54.456;9.752;2023-02-27T07:11:50;1.70;99.90
22442;DHT22;11388;54.456;9.752;2023-02-27T07:14:16;1.70;99.90
22442;DHT22;11388;54.456;9.752;2023-02-27T07:16:42;1.80;99.90
22442;DHT22;11388;54.456;9.752;2023-02-27T07:19:08;2.00;99.90
22442;DHT22;11388;54.456;9.752;2023-02-27T07:21:34;2.00;99.90
22442;DHT22;11388;54.456;9.752;2023-02-27T07:24:00;2.00;99.90
22442;DHT22;11388;54.456;9.752;2023-02-27T07:26:27;2.00;99.90
22442;DHT22;11388;54.456;9.752;2023-02-27T07:28:52;2.10;99.90
22442;DHT22;11388;54.456;9.752;2023-02-27T07:31:19;2.20;99.90
22442;DHT22;11388;54.456;9.752;2023-02-27T07:33:45;2.30;99.90
22442;DHT22;11388;54.456;9.752;2023-02-27T07:36:11;2.40;99.90
22442;DHT22;11388;54.456;9.752;2023-02-27T07:38:37;2.40;99.90
22442;DHT22;11388;54.456;9.752;2023-02-27T07:41:02;2.40;99.90
22442;DHT22;11388;54.456;9.752;2023-02-27T07:43:28;2.50;99.90
22442;DHT22;11388;54.456;9.752;2023-02-27T07:45:53;2.60;99.90
22442;DHT22;11388;54.456;9.752;2023-02-27T07:48:19;2.70;99.90
22442;DHT22;11388;54.456;9.752;2023-02-27T07:50:45;2.70;99.90
22442;DHT22;11388;54.456;9.752;2023-02-27T07:53:11;2.70;99.90
22442;DHT22;11388;54.456;9.752;2023-02-27T07:55:38;2.80;99.90
22442;DHT22;11388;54.456;9.752;2023-02-27T07:58:04;2.80;99.90
22442;DHT22;11388;54.456;9.752;2023-02-27T08:00:29;2.90;99.90
22442;DHT22;11388;54.456;9.752;2023-02-27T08:02:55;2.90;99.90
22442;DHT22;11388;54.456;9.752;2023-02-27T08:05:21;2.80;99.90
22442;DHT22;11388;54.456;9.752;2023-02-27T08:07:46;2.80;99.90
22442;DHT22;11388;54.456;9.752;2023-02-27T08:10:12;2.80;99.90
22442;DHT22;11388;54.456;9.752;2023-02-27T08:12:40;2.80;99.90
22442;DHT22;11388;54.456;9.752;2023-02-27T08:15:06;2.90;99.90
22442;DHT22;11388;54.456;9.752;2023-02-27T08:17:32;3.00;99.90
22442;DHT22;11388;54.456;9.752;2023-02-27T08:19:58;3.00;99.90
22442;DHT22;11388;54.456;9.752;2023-02-27T08:22:23;3.00;99.90
22442;DHT22;11388;54.456;9.752;2023-02-27T08:24:49;3.10;99.90
22442;DHT22;11388;54.456;9.752;2023-02-27T08:27:15;3.10;99.90
22442;DHT22;11388;54.456;9.752;2023-02-27T08:29:41;3.10;99.90
22442;DHT22;11388;54.456;9.752;2023-02-27T08:32:08;3.00;99.90
22442;DHT22;11388;54.456;9.752;2023-02-27T08:34:33;3.10;99.90
22442;DHT22;11388;54.456;9.752;2023-02-27T08:36:59;3.10;99.90
22442;DHT22;11388;54.456;9.752;2023-02-27T08:39:25;3.00;99.90
22442;DHT22;11388;54.456;9.752;2023-02-27T08:41:51;3.10;99.90
22442;DHT22;11388;54.456;9.752;2023-02-27T08:44:18;3.30;99.90
22442;DHT22;11388;54.456;9.752;2023-02-27T08:46:44;3.30;99.90
22442;DHT22;11388;54.456;9.752;2023-02-27T08:49:10;3.40;99.90
22442;DHT22;11388;54.456;9.752;2023-02-27T08:51:35;3.50;99.90
22442;DHT22;11388;54.456;9.752;2023-02-27T08:54:01;3.50;99.90
22442;DHT22;11388;54.456;9.752;2023-02-27T08:56:27;3.60;99.90
22442;DHT22;11388;54.456;9.752;2023-02-27T08:58:53;3.70;99.90
22442;DHT22;11388;54.456;9.752;2023-02-27T09:01:19;3.70;99.90
22442;DHT22;11388;54.456;9.752;2023-02-27T09:03:45;3.70;99.90
22442;DHT22;11388;54.456;9.752;2023-02-27T09:06:10;3.70;99.90
22442;DHT22;11388;54.456;9.752;2023-02-27T09:08:36;3.80;99.90
22442;DHT22;11388;54.456;9.752;2023-02-27T09:11:02;3.90;99.90
22442;DHT22;11388;54.456;9.752;2023-02-27T09:13:28;3.90;99.90
22442;DHT22;11388;54.456;9.752;2023-02-27T09:15:54;3.90;99.90
22442;DHT22;11388;54.456;9.752;2023-02-27T09:18:21;4.00;99.90
22442;DHT22;11388;54.456;9.752;2023-02-27T09:20:50;4.10;99.90
22442;DHT22;11388;54.456;9.752;2023-02-27T09:23:16;4.20;99.90
22442;DHT22;11388;54.456;9.752;2023-02-27T09:25:42;4.20;99.90
22442;DHT22;11388;54.456;9.752;2023-02-27T09:28:08;4.30;99.90
22442;DHT22;11388;54.456;9.752;2023-02-27T09:30:34;4.40;99.90
22442;DHT22;11388;54.456;9.752;2023-02-27T09:32:59;4.60;99.90
22442;DHT22;11388;54.456;9.752;2023-02-27T09:35:25;4.70;99.90
22442;DHT22;11388;54.456;9.752;2023-02-27T09:37:51;4.80;99.90
22442;DHT22;11388;54.456;9.752;2023-02-27T09:40:24;4.80;99.90
22442;DHT22;11388;54.456;9.752;2023-02-27T09:42:52;4.90;99.90
22442;DHT22;11388;54.456;9.752;2023-02-27T09:45:24;4.80;99.90
22442;DHT22;11388;54.456;9.752;2023-02-27T09:47:55;4.90;99.90
22442;DHT22;11388;54.456;9.752;2023-02-27T09:50:32;5.00;99.90
22442;DHT22;11388;54.456;9.752;2023-02-27T09:53:02;5.20;99.90
22442;DHT22;11388;54.456;9.752;2023-02-27T09:55:31;5.20;99.90
22442;DHT22;11388;54.456;9.752;2023-02-27T09:58:06;5.20;99.90
22442;DHT22;11388;54.456;9.752;2023-02-27T10:03:33;5.50;99.90
22442;DHT22;11388;54.456;9.752;2023-02-27T10:09:33;5.50;99.90
22442;DHT22;11388;54.456;9.752;2023-02-27T10:12:20;5.70;99.90
22442;DHT22;11388;54.456;9.752;2023-02-27T10:14:55;5.70;99.90
22442;DHT22;11388;54.456;9.752;2023-02-27T10:17:32;5.80;99.90
22442;DHT22;11388;54.456;9.752;2023-02-27T10:20:02;5.80;99.90
22442;DHT22;11388;54.456;9.752;2023-02-27T10:22:34;5.80;99.90
22442;DHT22;11388;54.456;9.752;2023-02-27T10:25:12;5.90;99.90
22442;DHT22;11388;54.456;9.752;2023-02-27T10:27:41;5.90;99.90
22442;DHT22;11388;54.456;9.752;2023-02-27T10:30:18;6.10;99.90
22442;DHT22;11388;54.456;9.752;2023-02-27T10:32:45;6.20;99.90
22442;DHT22;11388;54.456;9.752;2023-02-27T10:35:33;6.30;99.90
22442;DHT22;11388;54.456;9.752;2023-02-27T10:38:05;6.40;99.90
22442;DHT22;11388;54.456;9.752;2023-02-27T10:40:34;6.50;99.90
22442;DHT22;11388;54.456;9.752;2023-02-27T10:43:01;6.50;99.90
22442;DHT22;11388;54.456;9.752;2023-02-27T10:45:28;6.60;99.90
22442;DHT22;11388;54.456;9.752;2023-02-27T10:47:53;6.60;99.90
22442;DHT22;11388;54.456;9.752;2023-02-27T10:50:27;6.80;99.90
22442;DHT22;11388;54.456;9.752;2023-02-27T10:52:58;6.80;99.90
22442;DHT22;11388;54.456;9.752;2023-02-27T10:55:33;6.90;99.90
22442;DHT22;11388;54.456;9.752;2023-02-27T10:58:01;6.80;99.90
22442;DHT22;11388;54.456;9.752;2023-02-27T11:03:33;7.00;99.90
22442;DHT22;11388;54.456;9.752;2023-02-27T11:06:07;7.10;99.90
22442;DHT22;11388;54.456;9.752;2023-02-27T11:08:34;7.10;99.90
22442;DHT22;11388;54.456;9.752;2023-02-27T11:11:08;7.20;99.90
22442;DHT22;11388;54.456;9.752;2023-02-27T11:13:40;7.30;99.90
22442;DHT22;11388;54.456;9.752;2023-02-27T11:16:17;7.40;99.90
22442;DHT22;11388;54.456;9.752;2023-02-27T11:18:50;7.60;99.90
22442;DHT22;11388;54.456;9.752;2023-02-27T11:21:25;7.70;99.90
22442;DHT22;11388;54.456;9.752;2023-02-27T11:24:00;7.80;99.90
22442;DHT22;11388;54.456;9.752;2023-02-27T11:26:30;7.90;99.90
22442;DHT22;11388;54.456;9.752;2023-02-27T11:29:16;7.90;99.90
22442;DHT22;11388;54.456;9.752;2023-02-27T11:31:53;7.80;99.90
22442;DHT22;11388;54.456;9.752;2023-02-27T11:34:47;7.70;99.90
22442;DHT22;11388;54.456;9.752;2023-02-27T11:37:30;7.80;99.90
22442;DHT22;11388;54.456;9.752;2023-02-27T11:40:21;7.80;99.90
22442;DHT22;11388;54.456;9.752;2023-02-27T11:42:52;7.90;99.90
22442;DHT22;11388;54.456;9.752;2023-02-27T11:47:48;7.90;99.90
22442;DHT22;11388;54.456;9.752;2023-02-27T11:55:39;8.10;99.90
22442;DHT22;11388;54.456;9.752;2023-02-27T11:58:14;8.20;99.90
22442;DHT22;11388;54.456;9.752;2023-02-27T12:00:56;8.30;99.90
22442;DHT22;11388;54.456;9.752;2023-02-27T12:03:37;8.30;99.90
22442;DHT22;11388;54.456;9.752;2023-02-27T12:06:36;8.10;99.90
22442;DHT22;11388;54.456;9.752;2023-02-27T12:09:04;8.30;99.90
22442;DHT22;11388;54.456;9.752;2023-02-27T12:11:38;8.40;99.90
22442;DHT22;11388;54.456;9.752;2023-02-27T12:14:49;8.30;99.90
22442;DHT22;11388;54.456;9.752;2023-02-27T12:20:07;8.80;99.90
22442;DHT22;11388;54.456;9.752;2023-02-27T12:22:41;9.30;99.90
22442;DHT22;11388;54.456;9.752;2023-02-27T12:25:29;9.50;99.90
22442;DHT22;11388;54.456;9.752;2023-02-27T12:31:16;9.90;99.90
22442;DHT22;11388;54.456;9.752;2023-02-27T12:34:10;10.10;99.90
22442;DHT22;11388;54.456;9.752;2023-02-27T12:36:38;10.40;99.90
22442;DHT22;11388;54.456;9.752;2023-02-27T12:39:04;10.10;99.90
22442;DHT22;11388;54.456;9.752;2023-02-27T12:47:37;9.80;99.90
22442;DHT22;11388;54.456;9.752;2023-02-27T12:53:07;13.10;99.90
22442;DHT22;11388;54.456;9.752;2023-02-27T12:56:37;13.30;99.90
22442;DHT22;11388;54.456;9.752;2023-02-27T12:59:05;13.00;99.90
22442;DHT22;11388;54.456;9.752;2023-02-27T13:04:47;11.30;99.90
22442;DHT22;11388;54.456;9.752;2023-02-27T13:07:33;11.80;99.90
22442;DHT22;11388;54.456;9.752;2023-02-27T13:10:14;12.10;99.90
22442;DHT22;11388;54.456;9.752;2023-02-27T13:12:48;13.00;99.90
22442;DHT22;11388;54.456;9.752;2023-02-27T13:16:15;13.30;99.90
22442;DHT22;11388;54.456;9.752;2023-02-27T13:18:38;13.10;99.90
22442;DHT22;11388;54.456;9.752;2023-02-27T13:21:18;12.70;99.90
22442;DHT22;11388;54.456;9.752;2023-02-27T13:23:52;12.20;99.90
22442;DHT22;11388;54.456;9.752;2023-02-27T13:26:29;11.90;99.90
22442;DHT22;11388;54.456;9.752;2023-02-27T13:28:57;11.60;99.90
22442;DHT22;11388;54.456;9.752;2023-02-27T13:34:04;10.80;99.90
22442;DHT22;11388;54.456;9.752;2023-02-27T13:36:43;10.60;99.90
22442;DHT22;11388;54.456;9.752;2023-02-27T13:42:03;10.20;99.90
22442;DHT22;11388;54.456;9.752;2023-02-27T13:44:39;10.20;99.90
22442;DHT22;11388;54.456;9.752;2023-02-27T13:47:38;10.00;99.90
22442;DHT22;11388;54.456;9.752;2023-02-27T13:52:43;9.90;99.90
22442;DHT22;11388;54.456;9.752;2023-02-27T13:55:30;9.80;99.90
22442;DHT22;11388;54.456;9.752;2023-02-27T13:57:58;9.80;99.90
22442;DHT22;11388;54.456;9.752;2023-02-27T14:00:41;9.70;99.90
22442;DHT22;11388;54.456;9.752;2023-02-27T14:03:26;9.80;99.90
22442;DHT22;11388;54.456;9.752;2023-02-27T14:05:57;9.90;99.90
22442;DHT22;11388;54.456;9.752;2023-02-27T14:08:38;9.90;99.90
22442;DHT22;11388;54.456;9.752;2023-02-27T14:19:25;9.80;99.90
22442;DHT22;11388;54.456;9.752;2023-02-27T14:24:44;9.70;99.90
22442;DHT22;11388;54.456;9.752;2023-02-27T14:27:47;9.70;99.90
22442;DHT22;11388;54.456;9.752;2023-02-27T14:30:33;9.80;99.90
22442;DHT22;11388;54.456;9.752;2023-02-27T14:33:04;9.90;99.90
22442;DHT22;11388;54.456;9.752;2023-02-27T14:35:32;9.80;99.90
22442;DHT22;11388;54.456;9.752;2023-02-27T14:37:59;9.80;99.90
22442;DHT22;11388;54.456;9.752;2023-02-27T14:40:32;9.70;99.90
22442;DHT22;11388;54.456;9.752;2023-02-27T14:43:17;9.50;99.90
22442;DHT22;11388;54.456;9.752;2023-02-27T14:45:47;9.50;99.90
22442;DHT22;11388;54.456;9.752;2023-02-27T14:48:21;9.50;99.90
22442;DHT22;11388;54.456;9.752;2023-02-27T14:50:51;9.50;99.90
22442;DHT22;11388;54.456;9.752;2023-02-27T14:53:23;9.50;99.90
22442;DHT22;11388;54.456;9.752;2023-02-27T14:55:57;9.50;99.90
22442;DHT22;11388;54.456;9.752;2023-02-27T14:58:23;9.40;99.90
22442;DHT22;11388;54.456;9.752;2023-02-27T15:01:03;9.40;99.90
22442;DHT22;11388;54.456;9.752;2023-02-27T15:03:51;9.40;99.90
22442;DHT22;11388;54.456;9.752;2023-02-27T15:06:34;9.50;99.90
22442;DHT22;11388;54.456;9.752;2023-02-27T15:09:00;9.40;99.90
22442;DHT22;11388;54.456;9.752;2023-02-27T15:11:25;9.40;99.90
22442;DHT22;11388;54.456;9.752;2023-02-27T15:13:58;9.30;99.90
22442;DHT22;11388;54.456;9.752;2023-02-27T15:19:24;8.90;99.90
22442;DHT22;11388;54.456;9.752;2023-02-27T15:21:56;8.80;99.90
22442;DHT22;11388;54.456;9.752;2023-02-27T15:26:56;8.70;99.90
22442;DHT22;11388;54.456;9.752;2023-02-27T15:29:25;8.70;99.90
22442;DHT22;11388;54.456;9.752;2023-02-27T15:31:54;8.70;99.90
22442;DHT22;11388;54.456;9.752;2023-02-27T15:34:20;8.70;99.90
22442;DHT22;11388;54.456;9.752;2023-02-27T15:36:50;8.80;99.90
22442;DHT22;11388;54.456;9.752;2023-02-27T15:39:19;8.80;99.90
22442;DHT22;11388;54.456;9.752;2023-02-27T15:41:49;8.70;99.90
22442;DHT22;11388;54.456;9.752;2023-02-27T15:44:17;8.60;99.90
22442;DHT22;11388;54.456;9.752;2023-02-27T15:46:44;8.50;99.90
22442;DHT22;11388;54.456;9.752;2023-02-27T15:49:16;8.50;99.90
22442;DHT22;11388;54.456;9.752;2023-02-27T15:51:42;8.60;99.90
22442;DHT22;11388;54.456;9.752;2023-02-27T15:54:09;8.70;99.90
22442;DHT22;11388;54.456;9.752;2023-02-27T15:56:36;8.70;99.90
22442;DHT22;11388;54.456;9.752;2023-02-27T15:59:03;8.60;99.90
22442;DHT22;11388;54.456;9.752;2023-02-27T16:01:30;8.60;99.90
22442;DHT22;11388;54.456;9.752;2023-02-27T16:04:03;8.70;99.90
22442;DHT22;11388;54.456;9.752;2023-02-27T16:06:36;8.70;99.90
22442;DHT22;11388;54.456;9.752;2023-02-27T16:09:05;8.80;99.90
22442;DHT22;11388;54.456;9.752;2023-02-27T16:11:36;8.60;99.90
22442;DHT22;11388;54.456;9.752;2023-02-27T16:14:02;8.60;99.90
22442;DHT22;11388;54.456;9.752;2023-02-27T16:16:31;8.50;99.90
22442;DHT22;11388;54.456;9.752;2023-02-27T16:19:13;8.60;99.90
22442;DHT22;11388;54.456;9.752;2023-02-27T16:21:50;8.60;99.90
22442;DHT22;11388;54.456;9.752;2023-02-27T16:24:30;8.60;99.90
22442;DHT22;11388;54.456;9.752;2023-02-27T16:26:56;8.40;99.90
22442;DHT22;11388;54.456;9.752;2023-02-27T16:29:30;8.40;99.90
22442;DHT22;11388;54.456;9.752;2023-02-27T16:31:58;8.30;99.90
22442;DHT22;11388;54.456;9.752;2023-02-27T16:34:32;8.10;99.90
22442;DHT22;11388;54.456;9.752;2023-02-27T16:37:02;7.90;99.90
22442;DHT22;11388;54.456;9.752;2023-02-27T16:39:28;7.90;99.90
22442;DHT22;11388;54.456;9.752;2023-02-27T16:41:56;7.90;99.90
22442;DHT22;11388;54.456;9.752;2023-02-27T16:44:22;7.90;99.90
22442;DHT22;11388;54.456;9.752;2023-02-27T16:46:50;8.00;99.90
22442;DHT22;11388;54.456;9.752;2023-02-27T16:49:25;7.80;99.90
22442;DHT22;11388;54.456;9.752;2023-02-27T16:51:51;7.80;99.90
22442;DHT22;11388;54.456;9.752;2023-02-27T16:54:17;7.80;99.90
22442;DHT22;11388;54.456;9.752;2023-02-27T16:56:44;7.80;99.90
22442;DHT22;11388;54.456;9.752;2023-02-27T16:59:35;7.80;99.90
22442;DHT22;11388;54.456;9.752;2023-02-27T17:02:06;7.80;99.90
22442;DHT22;11388;54.456;9.752;2023-02-27T17:04:32;7.90;99.90
22442;DHT22;11388;54.456;9.752;2023-02-27T17:06:59;7.90;99.90
22442;DHT22;11388;54.456;9.752;2023-02-27T17:09:26;7.90;99.90
22442;DHT22;11388;54.456;9.752;2023-02-27T17:11:53;8.00;99.90
22442;DHT22;11388;54.456;9.752;2023-02-27T17:14:19;8.00;99.90
22442;DHT22;11388;54.456;9.752;2023-02-27T17:16:45;7.90;99.90
22442;DHT22;11388;54.456;9.752;2023-02-27T17:19:12;7.90;99.90
22442;DHT22;11388;54.456;9.752;2023-02-27T17:21:39;7.90;99.90
22442;DHT22;11388;54.456;9.752;2023-02-27T17:24:05;7.80;99.90
22442;DHT22;11388;54.456;9.752;2023-02-27T17:26:31;7.90;99.90
22442;DHT22;11388;54.456;9.752;2023-02-27T17:28:57;7.80;99.90
22442;DHT22;11388;54.456;9.752;2023-02-27T17:31:23;7.50;99.90
22442;DHT22;11388;54.456;9.752;2023-02-27T17:33:50;7.50;99.90
22442;DHT22;11388;54.456;9.752;2023-02-27T17:36:16;7.50;99.90
22442;DHT22;11388;54.456;9.752;2023-02-27T17:38:42;7.40;99.90
22442;DHT22;11388;54.456;9.752;2023-02-27T17:41:11;7.50;99.90
22442;DHT22;11388;54.456;9.752;2023-02-27T17:43:37;7.70;99.90
22442;DHT22;11388;54.456;9.752;2023-02-27T17:46:10;7.70;99.90
22442;DHT22;11388;54.456;9.752;2023-02-27T17:48:37;7.70;99.90
22442;DHT22;11388;54.456;9.752;2023-02-27T17:51:05;7.70;99.90
22442;DHT22;11388;54.456;9.752;2023-02-27T17:53:31;7.70;99.90
22442;DHT22;11388;54.456;9.752;2023-02-27T17:55:57;7.70;99.90
22442;DHT22;11388;54.456;9.752;2023-02-27T17:58:22;7.70;99.90
22442;DHT22;11388;54.456;9.752;2023-02-27T18:00:48;7.70;99.90
22442;DHT22;11388;54.456;9.752;2023-02-27T18:03:14;7.80;99.90
22442;DHT22;11388;54.456;9.752;2023-02-27T18:05:47;7.60;99.90
22442;DHT22;11388;54.456;9.752;2023-02-27T18:08:14;7.70;99.90
22442;DHT22;11388;54.456;9.752;2023-02-27T18:10:39;7.70;99.90
22442;DHT22;11388;54.456;9.752;2023-02-27T18:13:09;7.70;99.90